Terminal Aerodrome Forecast
Issued by NWS Tampa Bay Area, FL

Home | Current Version | Previous Version | Text Only | Print | Product List | Glossary On
Versions: 1 2 3 4 5 6 7 8 9 10 11 12 13
000
FTUS42 KTBW 211730
TAFFMY
TAF
KFMY 211730Z 2118/2218 08009KT P6SM SCT050 SCT250
     FM212200 24008KT P6SM VCSH SCT045 SCT250
     FM220200 09005KT P6SM SCT025 BKN100
     FM221400 15008KT P6SM SCT030 BKN050=

USA.gov is the U.S. government's official web portal to all federal, state and local government web resources and services.